Time;durP1;ratioP1;P1;durP2;ratioP2;P2;SDS_P1;SDS_P2;PMS_P1;PMS_P2;Temp;Humidity;BMP_temperature;BMP_pressure;BME280_temperature;BME280_humidity;BME280_pressure;Samples;Min_cycle;Max_cycle;Signal;HPM_P1;HPM_P2
2023/05/17 00:01:51;;;;;;;10.47;2.27;;;;;;;;;;4992680;28;20255;-86
2023/05/17 00:04:21;;;;;;;0.70;0.70;;;;;;;;;;4992850;28;20227;-86
2023/05/17 00:06:49;;;;;;;8.70;2.37;;;;;;;;;;4992917;28;20239;-86
2023/05/17 00:09:18;;;;;;;2.37;2.13;;;;;;;;;;4992415;28;20235;-89
2023/05/17 00:11:47;;;;;;;5.37;2.53;;;;;;;;;;4992955;28;20231;-90
2023/05/17 00:14:15;;;;;;;2.00;1.90;;;;;;;;;;4992889;28;20284;-90
2023/05/17 00:16:44;;;;;;;4.50;3.13;;;;;;;;;;4990149;28;20244;-90
2023/05/17 00:19:12;;;;;;;10.77;3.77;;;;;;;;;;4992761;28;20204;-89
2023/05/17 00:21:43;;;;;;;11.43;3.50;;;;;;;;;;4992569;28;20205;-90
2023/05/17 00:24:11;;;;;;;2.97;2.57;;;;;;;;;;4993090;28;20224;-90
2023/05/17 00:26:40;;;;;;;5.67;2.87;;;;;;;;;;4992891;28;20201;-90
2023/05/17 00:29:08;;;;;;;3.37;2.17;;;;;;;;;;4993122;28;20197;-90
2023/05/17 00:31:37;;;;;;;4.90;1.67;;;;;;;;;;4993189;28;20197;-86
2023/05/17 00:34:05;;;;;;;3.00;2.30;;;;;;;;;;4992465;28;20200;-86
2023/05/17 00:36:34;;;;;;;8.77;3.13;;;;;;;;;;4993305;28;20244;-86
2023/05/17 00:39:04;;;;;;;1.70;1.60;;;;;;;;;;4992593;28;20319;-86
2023/05/17 00:41:32;;;;;;;2.07;1.50;;;;;;;;;;4992117;28;20204;-86
2023/05/17 00:44:01;;;;;;;5.37;2.43;;;;;;;;;;4992579;28;20208;-86
2023/05/17 00:46:29;;;;;;;13.00;2.10;;;;;;;;;;4992550;28;20211;-86
2023/05/17 00:48:58;;;;;;;16.30;2.30;;;;;;;;;;4994221;28;20207;-86
2023/05/17 00:51:27;;;;;;;4.23;2.30;;;;;;;;;;4995662;28;20232;-86
2023/05/17 00:53:56;;;;;;;2.70;2.40;;;;;;;;;;4996168;28;20299;-86
2023/05/17 00:56:27;;;;;;;2.50;2.07;;;;;;;;;;4996035;28;20219;-86
2023/05/17 00:58:55;;;;;;;1.53;1.40;;;;;;;;;;4995695;28;20196;-86
2023/05/17 01:01:24;;;;;;;5.43;1.90;;;;;;;;;;4996125;28;20192;-86
2023/05/17 01:03:52;;;;;;;2.63;1.83;;;;;;;;;;4995880;28;20230;-85
2023/05/17 01:06:21;;;;;;;2.20;1.30;;;;;;;;;;4995951;28;20212;-90
2023/05/17 01:08:50;;;;;;;0.97;0.97;;;;;;;;;;4996177;28;20209;-90
2023/05/17 01:11:25;;;;;;;3.07;2.43;;;;;;;;;;4996144;28;20208;-90
2023/05/17 01:13:56;;;;;;;2.53;2.23;;;;;;;;;;4995697;28;20196;-90
2023/05/17 01:16:28;;;;;;;3.90;2.87;;;;;;;;;;4995818;28;20267;-90
2023/05/17 01:18:59;;;;;;;1.27;1.23;;;;;;;;;;4996116;28;20255;-90
2023/05/17 01:21:36;;;;;;;1.20;1.20;;;;;;;;;;4995775;28;20212;-90
2023/05/17 01:24:17;;;;;;;3.27;2.80;;;;;;;;;;4995900;28;20298;-90
2023/05/17 01:26:49;;;;;;;1.13;1.13;;;;;;;;;;4995989;28;20229;-89
2023/05/17 01:29:21;;;;;;;1.60;1.47;;;;;;;;;;4995753;28;20204;-90
2023/05/17 01:31:50;;;;;;;3.87;2.50;;;;;;;;;;4996097;28;20204;-90
2023/05/17 01:34:25;;;;;;;2.67;1.43;;;;;;;;;;4996301;28;20196;-90
2023/05/17 01:36:53;;;;;;;9.97;2.23;;;;;;;;;;4995334;28;20219;-90
2023/05/17 01:39:22;;;;;;;5.23;2.57;;;;;;;;;;4995596;28;20216;-90
2023/05/17 01:41:57;;;;;;;1.13;1.10;;;;;;;;;;4995456;28;20286;-89
2023/05/17 01:44:31;;;;;;;2.53;1.80;;;;;;;;;;4995660;28;20227;-90
2023/05/17 01:47:03;;;;;;;2.33;1.87;;;;;;;;;;4995357;28;20207;-90
2023/05/17 01:49:32;;;;;;;5.07;2.60;;;;;;;;;;4995562;28;20231;-90
2023/05/17 01:52:04;;;;;;;4.93;2.07;;;;;;;;;;4995488;28;20196;-89
2023/05/17 01:54:37;;;;;;;3.43;2.60;;;;;;;;;;4995162;28;20196;-90
2023/05/17 01:57:09;;;;;;;5.13;3.43;;;;;;;;;;4995107;28;20240;-89
2023/05/17 01:59:39;;;;;;;11.63;2.60;;;;;;;;;;4995192;28;20235;-90
2023/05/17 02:02:08;;;;;;;5.47;2.53;;;;;;;;;;4994957;28;20201;-90
2023/05/17 02:04:36;;;;;;;7.50;3.60;;;;;;;;;;4995109;28;20224;-90
2023/05/17 02:07:05;;;;;;;2.90;1.93;;;;;;;;;;4995120;28;20247;-90
2023/05/17 02:09:33;;;;;;;6.77;3.60;;;;;;;;;;4994388;28;20196;-89
2023/05/17 02:12:02;;;;;;;3.60;2.90;;;;;;;;;;4994903;28;20204;-90
2023/05/17 02:14:32;;;;;;;3.47;2.23;;;;;;;;;;4995474;28;20204;-90
2023/05/17 02:17:04;;;;;;;3.13;2.47;;;;;;;;;;4994597;28;20232;-89
2023/05/17 02:19:33;;;;;;;6.10;2.43;;;;;;;;;;4994416;28;20200;-89
2023/05/17 02:22:01;;;;;;;6.23;2.63;;;;;;;;;;4994205;28;20299;-90
2023/05/17 02:24:30;;;;;;;7.47;2.23;;;;;;;;;;4994711;28;20205;-89
2023/05/17 02:26:58;;;;;;;1.63;1.53;;;;;;;;;;4994489;28;20227;-89
2023/05/17 02:29:27;;;;;;;4.70;3.53;;;;;;;;;;4995409;28;20219;-89
2023/05/17 02:31:57;;;;;;;1.80;1.70;;;;;;;;;;4994626;28;20208;-86
2023/05/17 02:34:26;;;;;;;1.33;1.33;;;;;;;;;;4994325;28;20207;-86
2023/05/17 02:36:54;;;;;;;2.60;2.40;;;;;;;;;;4994688;28;20295;-86
2023/05/17 02:39:23;;;;;;;2.33;1.20;;;;;;;;;;4993759;28;20196;-86
2023/05/17 02:41:51;;;;;;;10.33;2.50;;;;;;;;;;4993684;28;20200;-86
2023/05/17 02:44:20;;;;;;;1.00;1.00;;;;;;;;;;4993959;28;20219;-86
2023/05/17 02:46:48;;;;;;;2.40;1.20;;;;;;;;;;4994793;28;20224;-85
2023/05/17 02:49:18;;;;;;;0.90;0.90;;;;;;;;;;4993572;28;20208;-86
2023/05/17 02:51:47;;;;;;;2.87;2.67;;;;;;;;;;4994485;28;20208;-86
2023/05/17 02:54:15;;;;;;;2.43;1.33;;;;;;;;;;4994204;28;20218;-89
2023/05/17 02:56:44;;;;;;;1.53;1.43;;;;;;;;;;4993861;28;20200;-89
2023/05/17 02:59:13;;;;;;;0.70;0.70;;;;;;;;;;4994386;28;20208;-89
2023/05/17 03:01:42;;;;;;;2.80;2.60;;;;;;;;;;4993970;28;20259;-90
2023/05/17 03:04:10;;;;;;;3.13;2.10;;;;;;;;;;4994174;28;20207;-89
2023/05/17 03:06:40;;;;;;;0.70;0.70;;;;;;;;;;4993948;28;20234;-89
2023/05/17 03:09:09;;;;;;;2.43;1.47;;;;;;;;;;4993891;28;20195;-89
2023/05/17 03:11:37;;;;;;;0.80;0.80;;;;;;;;;;4993601;28;20230;-89
2023/05/17 03:14:06;;;;;;;0.80;0.80;;;;;;;;;;4993457;28;20205;-90
2023/05/17 03:16:35;;;;;;;0.80;0.80;;;;;;;;;;4993765;28;20247;-90
2023/05/17 03:19:03;;;;;;;0.77;0.77;;;;;;;;;;4993704;28;20215;-90
2023/05/17 03:21:32;;;;;;;0.70;0.70;;;;;;;;;;4993223;28;20218;-89
2023/05/17 03:24:02;;;;;;;0.70;0.70;;;;;;;;;;4993046;28;20276;-90
2023/05/17 03:26:32;;;;;;;9.33;1.33;;;;;;;;;;4993608;28;20227;-89
2023/05/17 03:29:00;;;;;;;1.20;1.20;;;;;;;;;;4993073;28;20196;-90
2023/05/17 03:31:30;;;;;;;0.70;0.70;;;;;;;;;;4993690;28;20207;-90
2023/05/17 03:33:58;;;;;;;1.27;1.27;;;;;;;;;;4993528;28;20204;-90
2023/05/17 03:36:27;;;;;;;0.70;0.70;;;;;;;;;;4993895;28;20207;-90
2023/05/17 03:38:55;;;;;;;0.97;0.97;;;;;;;;;;4993369;28;20208;-90
2023/05/17 03:41:25;;;;;;;1.13;1.13;;;;;;;;;;4993813;28;20203;-90
2023/05/17 03:43:54;;;;;;;2.07;1.97;;;;;;;;;;4993495;28;20207;-90
2023/05/17 03:46:22;;;;;;;4.40;1.13;;;;;;;;;;4992844;28;20231;-90
2023/05/17 03:48:51;;;;;;;0.80;0.80;;;;;;;;;;4993359;28;20196;-90
2023/05/17 03:51:19;;;;;;;0.70;0.70;;;;;;;;;;4993698;28;20211;-89
2023/05/17 03:53:48;;;;;;;0.93;0.93;;;;;;;;;;4992587;28;20212;-89
2023/05/17 03:56:17;;;;;;;5.57;2.13;;;;;;;;;;4993116;28;20202;-89
2023/05/17 03:58:47;;;;;;;0.80;0.80;;;;;;;;;;4993505;28;20218;-90
2023/05/17 04:01:16;;;;;;;0.80;0.80;;;;;;;;;;4992787;28;20205;-89
2023/05/17 04:03:44;;;;;;;1.93;1.83;;;;;;;;;;4993255;28;20206;-86
2023/05/17 04:06:14;;;;;;;0.87;0.87;;;;;;;;;;4993101;28;20228;-86
2023/05/17 04:08:43;;;;;;;3.30;3.10;;;;;;;;;;4992733;28;20207;-86
2023/05/17 04:11:12;;;;;;;0.70;0.70;;;;;;;;;;4992340;28;20205;-86
2023/05/17 04:13:41;;;;;;;1.37;1.33;;;;;;;;;;4992737;28;20212;-86
2023/05/17 04:16:11;;;;;;;1.10;1.10;;;;;;;;;;4992747;28;20249;-86
2023/05/17 04:18:40;;;;;;;3.63;1.30;;;;;;;;;;4992434;28;20199;-86
2023/05/17 04:21:08;;;;;;;0.70;0.70;;;;;;;;;;4992609;28;20210;-86
2023/05/17 04:23:37;;;;;;;0.90;0.90;;;;;;;;;;4994089;28;20204;-86
2023/05/17 04:26:05;;;;;;;3.97;1.57;;;;;;;;;;4996082;28;20309;-86
2023/05/17 04:28:34;;;;;;;3.23;3.03;;;;;;;;;;4996505;28;20285;-86
2023/05/17 04:31:03;;;;;;;0.80;0.80;;;;;;;;;;4996956;28;20327;-86
2023/05/17 04:33:33;;;;;;;0.70;0.70;;;;;;;;;;4996215;28;20216;-86
2023/05/17 04:36:01;;;;;;;0.70;0.70;;;;;;;;;;4996598;28;20264;-86
2023/05/17 04:38:30;;;;;;;1.50;1.50;;;;;;;;;;4996120;28;20192;-86
2023/05/17 04:41:03;;;;;;;0.73;0.73;;;;;;;;;;4996324;28;20211;-86
2023/05/17 04:43:32;;;;;;;0.70;0.70;;;;;;;;;;4996404;28;20251;-86
2023/05/17 04:46:01;;;;;;;0.70;0.70;;;;;;;;;;4996173;28;20308;-86
2023/05/17 04:48:31;;;;;;;1.00;1.00;;;;;;;;;;4995625;28;20299;-86
2023/05/17 04:51:03;;;;;;;0.70;0.70;;;;;;;;;;4995950;28;20203;-86
2023/05/17 04:53:32;;;;;;;0.70;0.70;;;;;;;;;;4996501;28;20208;-86
2023/05/17 04:56:00;;;;;;;1.00;1.00;;;;;;;;;;4996093;28;20208;-87
2023/05/17 04:58:29;;;;;;;2.07;1.23;;;;;;;;;;4996035;28;20205;-86
2023/05/17 05:00:57;;;;;;;1.30;1.30;;;;;;;;;;4995778;28;20262;-86
2023/05/17 05:03:28;;;;;;;1.43;1.03;;;;;;;;;;4996391;28;20200;-86
2023/05/17 05:05:56;;;;;;;2.20;1.47;;;;;;;;;;4995831;28;20209;-86
2023/05/17 05:08:26;;;;;;;4.83;3.40;;;;;;;;;;4995984;28;20200;-86
2023/05/17 05:10:55;;;;;;;2.47;2.00;;;;;;;;;;4996135;28;20247;-86
2023/05/17 05:13:23;;;;;;;2.20;1.93;;;;;;;;;;4995204;28;20193;-86
2023/05/17 05:15:52;;;;;;;5.03;2.80;;;;;;;;;;4995307;28;20326;-86
2023/05/17 05:18:20;;;;;;;1.00;1.00;;;;;;;;;;4995727;28;20199;-86
2023/05/17 05:20:49;;;;;;;1.70;1.60;;;;;;;;;;4995435;28;20204;-86
2023/05/17 05:23:18;;;;;;;0.70;0.70;;;;;;;;;;4996058;28;20205;-86
2023/05/17 05:25:47;;;;;;;1.60;1.50;;;;;;;;;;4995643;28;20212;-85
2023/05/17 05:28:16;;;;;;;4.67;2.10;;;;;;;;;;4994836;28;20343;-85
2023/05/17 05:30:45;;;;;;;1.60;1.43;;;;;;;;;;4995543;28;20204;-84
2023/05/17 05:33:13;;;;;;;0.70;0.70;;;;;;;;;;4996306;28;20219;-86
2023/05/17 05:35:42;;;;;;;3.23;2.03;;;;;;;;;;4996546;28;20215;-86
2023/05/17 05:38:10;;;;;;;1.20;1.17;;;;;;;;;;4996815;28;20200;-86
2023/05/17 05:40:40;;;;;;;1.03;1.03;;;;;;;;;;4996323;28;20280;-83
2023/05/17 05:43:10;;;;;;;3.23;2.00;;;;;;;;;;4995603;28;20216;-86
2023/05/17 05:45:40;;;;;;;1.50;1.40;;;;;;;;;;4994902;28;20209;-86
2023/05/17 05:48:08;;;;;;;6.90;2.07;;;;;;;;;;4996210;28;20224;-86
2023/05/17 05:50:37;;;;;;;1.70;1.50;;;;;;;;;;4995474;28;20216;-86
2023/05/17 05:53:05;;;;;;;6.03;2.50;;;;;;;;;;4995364;28;20236;-87
2023/05/17 05:55:46;;;;;;;1.40;1.10;;;;;;;;;;4995318;28;20287;-87
2023/05/17 05:58:16;;;;;;;1.70;1.23;;;;;;;;;;4995339;28;20248;-87
2023/05/17 06:00:45;;;;;;;1.47;1.37;;;;;;;;;;4995177;28;20204;-87
2023/05/17 06:03:13;;;;;;;7.70;1.77;;;;;;;;;;4995173;28;20231;-87
2023/05/17 06:05:42;;;;;;;8.37;1.77;;;;;;;;;;4995109;28;20209;-87
2023/05/17 06:08:11;;;;;;;1.17;1.17;;;;;;;;;;4995486;28;20239;-87
2023/05/17 06:10:39;;;;;;;5.13;2.13;;;;;;;;;;4994745;28;20200;-87
2023/05/17 06:13:08;;;;;;;1.20;1.20;;;;;;;;;;4995139;28;20300;-87
2023/05/17 06:15:38;;;;;;;4.47;1.57;;;;;;;;;;4994389;28;20236;-87
2023/05/17 06:18:06;;;;;;;1.70;1.60;;;;;;;;;;4994632;28;20197;-87
2023/05/17 06:20:35;;;;;;;1.80;1.67;;;;;;;;;;4995026;28;20325;-87
2023/05/17 06:23:03;;;;;;;11.67;2.03;;;;;;;;;;4994924;28;20266;-87
2023/05/17 06:25:32;;;;;;;4.40;1.67;;;;;;;;;;4994383;28;20227;-88
2023/05/17 06:28:02;;;;;;;1.30;1.20;;;;;;;;;;4994586;28;20221;-88
2023/05/17 06:30:31;;;;;;;3.37;1.53;;;;;;;;;;4994505;28;20265;-88
2023/05/17 06:33:01;;;;;;;1.10;0.93;;;;;;;;;;4993964;28;20214;-88
2023/05/17 06:35:30;;;;;;;4.53;2.73;;;;;;;;;;4994210;28;20201;-85
2023/05/17 06:38:15;;;;;;;1.50;1.10;;;;;;;;;;4994024;28;20278;-84
2023/05/17 06:40:43;;;;;;;1.07;1.03;;;;;;;;;;4993838;28;20201;-85
2023/05/17 06:43:12;;;;;;;1.00;1.00;;;;;;;;;;4993890;28;20240;-82
2023/05/17 06:45:40;;;;;;;1.03;1.03;;;;;;;;;;4993462;28;20208;-82
2023/05/17 06:48:10;;;;;;;0.70;0.70;;;;;;;;;;4993390;28;20220;-81
2023/05/17 06:50:39;;;;;;;3.13;1.67;;;;;;;;;;4993402;28;20222;-83
2023/05/17 06:53:07;;;;;;;1.90;1.10;;;;;;;;;;4994033;28;20236;-82
2023/05/17 06:55:36;;;;;;;2.97;1.63;;;;;;;;;;4993820;28;20316;-82
2023/05/17 06:58:06;;;;;;;2.83;1.37;;;;;;;;;;4993471;28;20291;-83
2023/05/17 07:00:35;;;;;;;2.17;1.47;;;;;;;;;;4993591;28;20197;-83
2023/05/17 07:03:04;;;;;;;4.57;3.33;;;;;;;;;;4993566;28;20197;-82
2023/05/17 07:05:35;;;;;;;4.17;1.57;;;;;;;;;;4993538;28;20209;-82
2023/05/17 07:08:05;;;;;;;4.80;2.40;;;;;;;;;;4993333;28;20256;-82
2023/05/17 07:10:33;;;;;;;3.00;1.53;;;;;;;;;;4993549;28;20295;-82
2023/05/17 07:13:01;;;;;;;1.97;1.63;;;;;;;;;;4993406;28;20211;-82
2023/05/17 07:15:30;;;;;;;4.17;2.07;;;;;;;;;;4993363;28;20242;-82
2023/05/17 07:17:59;;;;;;;0.80;0.80;;;;;;;;;;4993380;28;20270;-82
2023/05/17 07:20:28;;;;;;;1.20;1.10;;;;;;;;;;4992857;28;20200;-82
2023/05/17 07:22:58;;;;;;;1.70;1.33;;;;;;;;;;4993008;28;20205;-83
2023/05/17 07:25:26;;;;;;;3.23;1.53;;;;;;;;;;4993221;28;20208;-83
2023/05/17 07:27:55;;;;;;;1.13;1.10;;;;;;;;;;4992944;28;20246;-83
2023/05/17 07:30:23;;;;;;;1.40;1.40;;;;;;;;;;4993096;28;20211;-82
2023/05/17 07:32:52;;;;;;;7.53;4.93;;;;;;;;;;4993116;28;20206;-82
2023/05/17 07:35:21;;;;;;;2.80;1.53;;;;;;;;;;4992912;28;20216;-82
2023/05/17 07:37:49;;;;;;;2.20;1.30;;;;;;;;;;4993065;28;20198;-82
2023/05/17 07:40:20;;;;;;;1.90;1.33;;;;;;;;;;4993140;28;20213;-82
2023/05/17 07:42:49;;;;;;;6.77;1.97;;;;;;;;;;4993538;28;20212;-82
2023/05/17 07:45:18;;;;;;;2.20;2.10;;;;;;;;;;4992778;28;20241;-82
2023/05/17 07:47:46;;;;;;;6.00;1.93;;;;;;;;;;4992970;28;20224;-82
2023/05/17 07:50:15;;;;;;;2.90;2.10;;;;;;;;;;4993370;28;20251;-82
2023/05/17 07:52:43;;;;;;;3.13;1.00;;;;;;;;;;4992461;28;20209;-82
2023/05/17 07:55:15;;;;;;;0.70;0.70;;;;;;;;;;5001697;28;20218;-84
2023/05/17 07:57:47;;;;;;;5.53;1.40;;;;;;;;;;5004736;28;20220;-84
2023/05/17 08:00:19;;;;;;;4.00;1.90;;;;;;;;;;5007171;28;20213;-84
2023/05/17 08:02:47;;;;;;;8.47;3.63;;;;;;;;;;5008899;28;20212;-84
2023/05/17 08:05:16;;;;;;;0.97;0.97;;;;;;;;;;5010795;28;20291;-82
2023/05/17 08:07:45;;;;;;;1.17;1.07;;;;;;;;;;4997599;28;20216;-83
2023/05/17 08:10:14;;;;;;;10.33;1.63;;;;;;;;;;5011235;28;20258;-83
2023/05/17 08:12:42;;;;;;;3.33;1.20;;;;;;;;;;5000914;28;20209;-83
2023/05/17 08:15:14;;;;;;;2.83;1.43;;;;;;;;;;5006933;28;20213;-82
2023/05/17 08:17:43;;;;;;;3.60;1.83;;;;;;;;;;5002978;28;20205;-83
2023/05/17 08:20:12;;;;;;;2.30;1.30;;;;;;;;;;5001609;28;20209;-82
2023/05/17 08:22:43;;;;;;;5.63;1.87;;;;;;;;;;4998675;28;20239;-83
2023/05/17 08:25:11;;;;;;;3.00;2.00;;;;;;;;;;5005442;28;20237;-83
2023/05/17 08:27:40;;;;;;;4.70;1.80;;;;;;;;;;5006687;28;20238;-83
2023/05/17 08:30:09;;;;;;;1.67;1.40;;;;;;;;;;5007120;28;20228;-82
2023/05/17 08:32:46;;;;;;;1.63;1.20;;;;;;;;;;5004621;28;20203;-83
2023/05/17 08:35:15;;;;;;;2.23;1.43;;;;;;;;;;4998290;28;20301;-82
2023/05/17 08:37:55;;;;;;;4.57;1.30;;;;;;;;;;4999341;28;20207;-82
2023/05/17 08:40:24;;;;;;;6.43;1.37;;;;;;;;;;4999150;28;20256;-83
2023/05/17 08:42:53;;;;;;;1.90;1.23;;;;;;;;;;5000261;28;20210;-82
2023/05/17 08:45:22;;;;;;;2.63;0.90;;;;;;;;;;5000408;28;20209;-82
2023/05/17 08:47:53;;;;;;;1.70;1.13;;;;;;;;;;4997714;28;20206;-82
2023/05/17 08:50:21;;;;;;;1.10;1.10;;;;;;;;;;4998251;28;20235;-83
2023/05/17 08:52:50;;;;;;;1.07;1.07;;;;;;;;;;5001869;28;20208;-82
2023/05/17 08:55:19;;;;;;;0.60;0.60;;;;;;;;;;4999540;28;20203;-81
2023/05/17 08:57:48;;;;;;;0.80;0.80;;;;;;;;;;4997641;28;20217;-82
2023/05/17 09:00:19;;;;;;;1.73;0.97;;;;;;;;;;5002222;28;20213;-83
2023/05/17 09:02:48;;;;;;;2.63;0.90;;;;;;;;;;4999639;28;20241;-82
2023/05/17 09:05:19;;;;;;;1.93;1.03;;;;;;;;;;5001128;28;20249;-83
2023/05/17 09:07:48;;;;;;;2.53;1.27;;;;;;;;;;4999473;28;20215;-83
2023/05/17 09:10:17;;;;;;;2.50;2.30;;;;;;;;;;5003037;28;20227;-82
2023/05/17 09:12:46;;;;;;;3.33;1.27;;;;;;;;;;5002377;28;20203;-83
2023/05/17 09:15:15;;;;;;;3.30;0.90;;;;;;;;;;5004577;28;20214;-84
2023/05/17 09:17:51;;;;;;;0.80;0.80;;;;;;;;;;5000579;28;20234;-85
2023/05/17 09:20:32;;;;;;;1.17;1.17;;;;;;;;;;5008051;28;20264;-84
2023/05/17 09:23:01;;;;;;;0.80;0.80;;;;;;;;;;5000893;28;20218;-83
2023/05/17 09:25:33;;;;;;;1.83;1.17;;;;;;;;;;4999262;28;20208;-84
2023/05/17 09:28:02;;;;;;;0.97;0.97;;;;;;;;;;4997736;28;20225;-84
2023/05/17 09:30:31;;;;;;;0.90;0.90;;;;;;;;;;4998691;28;20274;-84
2023/05/17 09:33:05;;;;;;;1.37;1.17;;;;;;;;;;4999210;28;20281;-85
2023/05/17 09:35:36;;;;;;;3.80;1.23;;;;;;;;;;4998303;28;20207;-85
2023/05/17 09:38:06;;;;;;;7.33;3.03;;;;;;;;;;4995864;28;20199;-85
2023/05/17 09:40:38;;;;;;;1.00;0.80;;;;;;;;;;4995579;28;20203;-83
2023/05/17 09:43:07;;;;;;;0.60;0.60;;;;;;;;;;4996354;28;20219;-86
2023/05/17 09:45:36;;;;;;;2.23;1.27;;;;;;;;;;4994084;28;20211;-83
2023/05/17 09:48:14;;;;;;;1.83;1.37;;;;;;;;;;4995757;28;20211;-84
2023/05/17 09:50:48;;;;;;;40.53;2.07;;;;;;;;;;4995121;28;20315;-84
2023/05/17 09:53:27;;;;;;;3.30;1.43;;;;;;;;;;4995057;28;20210;-85
2023/05/17 09:55:57;;;;;;;3.10;1.90;;;;;;;;;;4994363;28;20230;-84
2023/05/17 09:58:27;;;;;;;1.97;1.33;;;;;;;;;;4995024;28;20214;-85
2023/05/17 10:00:59;;;;;;;4.67;1.53;;;;;;;;;;4993727;28;20199;-84
2023/05/17 10:03:30;;;;;;;0.93;0.93;;;;;;;;;;4995689;28;20214;-85
2023/05/17 10:06:02;;;;;;;1.33;1.23;;;;;;;;;;4995124;28;20234;-85
2023/05/17 10:08:32;;;;;;;1.23;0.93;;;;;;;;;;4994732;28;20218;-85
2023/05/17 10:11:04;;;;;;;1.67;1.30;;;;;;;;;;4994215;28;20279;-85
2023/05/17 10:13:34;;;;;;;1.77;1.23;;;;;;;;;;4995398;28;20217;-84
2023/05/17 10:16:03;;;;;;;2.13;2.03;;;;;;;;;;4994363;28;20245;-84
2023/05/17 10:18:32;;;;;;;5.53;1.40;;;;;;;;;;4994601;28;20210;-84
2023/05/17 10:21:03;;;;;;;2.47;1.17;;;;;;;;;;4993602;28;20211;-85
2023/05/17 10:23:32;;;;;;;1.90;1.17;;;;;;;;;;4994804;28;20204;-85
2023/05/17 10:26:01;;;;;;;8.27;1.90;;;;;;;;;;4994563;28;20207;-84
2023/05/17 10:28:31;;;;;;;5.10;1.60;;;;;;;;;;4994384;28;20238;-85
2023/05/17 10:31:00;;;;;;;3.63;1.83;;;;;;;;;;4994494;28;20285;-85
2023/05/17 10:33:29;;;;;;;1.40;1.20;;;;;;;;;;4994121;28;20208;-83
2023/05/17 10:36:03;;;;;;;3.57;3.23;;;;;;;;;;4993994;28;20250;-84
2023/05/17 10:38:33;;;;;;;2.53;1.30;;;;;;;;;;4995314;28;20206;-85
2023/05/17 10:41:11;;;;;;;1.97;1.40;;;;;;;;;;4994261;28;20199;-85
2023/05/17 10:43:40;;;;;;;1.00;1.00;;;;;;;;;;4994009;28;20222;-85
2023/05/17 10:46:14;;;;;;;5.83;2.13;;;;;;;;;;4994180;28;20238;-84
2023/05/17 10:48:43;;;;;;;5.97;1.33;;;;;;;;;;4993414;28;20202;-85
2023/05/17 10:51:12;;;;;;;8.97;2.10;;;;;;;;;;4993652;28;20229;-84
2023/05/17 10:54:05;;;;;;;2.60;1.30;;;;;;;;;;4994480;28;20208;-85
2023/05/17 10:56:34;;;;;;;1.57;1.43;;;;;;;;;;4993704;28;20212;-84
2023/05/17 10:59:16;;;;;;;1.63;1.20;;;;;;;;;;4993919;28;20223;-85
2023/05/17 11:01:54;;;;;;;3.67;1.50;;;;;;;;;;4994267;28;20251;-85
2023/05/17 11:04:24;;;;;;;0.97;0.97;;;;;;;;;;4993446;28;20211;-85
2023/05/17 11:06:54;;;;;;;4.07;1.93;;;;;;;;;;4994087;28;20303;-85
2023/05/17 11:09:25;;;;;;;5.77;2.90;;;;;;;;;;4993781;28;20207;-85
2023/05/17 11:12:04;;;;;;;1.60;1.10;;;;;;;;;;4993036;28;20211;-85
2023/05/17 11:14:47;;;;;;;3.00;2.80;;;;;;;;;;4993697;28;20210;-84
2023/05/17 11:17:17;;;;;;;7.87;1.77;;;;;;;;;;4991296;28;20292;-84
2023/05/17 11:20:09;;;;;;;1.40;0.77;;;;;;;;;;4993573;28;20271;-84
2023/05/17 11:22:41;;;;;;;2.23;1.60;;;;;;;;;;4993779;28;20235;-85
2023/05/17 11:25:12;;;;;;;3.30;1.90;;;;;;;;;;4993974;28;20215;-84
2023/05/17 11:27:45;;;;;;;2.83;1.77;;;;;;;;;;4993351;28;20236;-84
2023/05/17 11:30:18;;;;;;;1.73;1.63;;;;;;;;;;4993943;28;20250;-84
2023/05/17 11:32:53;;;;;;;2.50;1.40;;;;;;;;;;4993523;28;20196;-84
2023/05/17 11:35:24;;;;;;;1.43;1.33;;;;;;;;;;4993162;28;20298;-84
2023/05/17 11:37:53;;;;;;;5.10;2.33;;;;;;;;;;4993445;28;20208;-84
2023/05/17 11:40:27;;;;;;;1.03;1.00;;;;;;;;;;4993818;28;20203;-84
2023/05/17 11:43:13;;;;;;;2.10;1.17;;;;;;;;;;4993185;28;20216;-84
2023/05/17 11:45:43;;;;;;;2.33;1.53;;;;;;;;;;4993345;28;20277;-84
2023/05/17 11:48:12;;;;;;;2.77;1.07;;;;;;;;;;4993189;28;20196;-83
2023/05/17 11:50:41;;;;;;;0.87;0.87;;;;;;;;;;4993156;28;20223;-84
2023/05/17 11:53:10;;;;;;;2.47;1.60;;;;;;;;;;4992661;28;20200;-84
2023/05/17 11:55:40;;;;;;;1.50;1.07;;;;;;;;;;4993319;28;20233;-84
2023/05/17 11:58:09;;;;;;;0.70;0.70;;;;;;;;;;4993059;28;20201;-84
2023/05/17 12:00:39;;;;;;;2.83;1.27;;;;;;;;;;4992812;28;20215;-84
2023/05/17 12:03:18;;;;;;;3.50;1.27;;;;;;;;;;4993026;28;20196;-84
2023/05/17 12:05:47;;;;;;;0.83;0.83;;;;;;;;;;4992890;28;20199;-84
2023/05/17 12:08:18;;;;;;;2.90;1.67;;;;;;;;;;4992975;28;20200;-84
2023/05/17 12:10:51;;;;;;;0.67;0.67;;;;;;;;;;4993678;28;20228;-84
2023/05/17 12:13:21;;;;;;;1.73;1.63;;;;;;;;;;4993223;28;20198;-84
2023/05/17 12:15:54;;;;;;;1.57;1.47;;;;;;;;;;4990931;28;20251;-84
2023/05/17 12:18:24;;;;;;;6.00;1.90;;;;;;;;;;4993040;28;20207;-84
2023/05/17 12:20:56;;;;;;;1.83;1.70;;;;;;;;;;4993183;28;20242;-84
2023/05/17 12:23:35;;;;;;;3.97;2.10;;;;;;;;;;4999201;28;20214;-84
2023/05/17 12:26:11;;;;;;;2.43;1.13;;;;;;;;;;5001530;28;20271;-85
2023/05/17 12:28:45;;;;;;;13.80;1.83;;;;;;;;;;4993031;28;20219;-85
2023/05/17 12:31:15;;;;;;;1.90;1.73;;;;;;;;;;5002804;28;20222;-84
2023/05/17 12:33:46;;;;;;;3.40;1.40;;;;;;;;;;5010092;28;20216;-84
2023/05/17 12:36:16;;;;;;;4.47;1.90;;;;;;;;;;5008352;28;20199;-84
2023/05/17 12:38:45;;;;;;;2.53;1.77;;;;;;;;;;4992966;28;20207;-84
2023/05/17 12:41:17;;;;;;;2.83;2.17;;;;;;;;;;5003311;28;20198;-84
2023/05/17 12:43:46;;;;;;;3.33;1.57;;;;;;;;;;5011666;28;20219;-84
2023/05/17 12:46:16;;;;;;;2.90;1.90;;;;;;;;;;5006514;28;20222;-85
2023/05/17 12:48:45;;;;;;;5.67;1.63;;;;;;;;;;5013974;28;20237;-83
2023/05/17 12:51:16;;;;;;;2.67;1.73;;;;;;;;;;5015588;28;20219;-85
2023/05/17 12:53:45;;;;;;;2.33;1.60;;;;;;;;;;5016053;28;20209;-84
2023/05/17 12:56:21;;;;;;;6.23;1.83;;;;;;;;;;5015868;28;20302;-84
2023/05/17 12:59:07;;;;;;;2.60;1.10;;;;;;;;;;5015916;28;20306;-85
2023/05/17 13:01:36;;;;;;;4.37;1.70;;;;;;;;;;5015747;28;20298;-85
2023/05/17 13:04:05;;;;;;;13.80;1.90;;;;;;;;;;5014583;28;20278;-85
2023/05/17 13:06:47;;;;;;;4.00;1.50;;;;;;;;;;5024528;28;20206;-85
2023/05/17 13:09:20;;;;;;;4.17;1.50;;;;;;;;;;5016993;28;20221;-86
2023/05/17 13:11:54;;;;;;;5.23;1.57;;;;;;;;;;5014665;28;20203;-85
2023/05/17 13:14:40;;;;;;;3.03;1.40;;;;;;;;;;5014271;28;20207;-85
2023/05/17 13:17:14;;;;;;;2.77;1.77;;;;;;;;;;5015795;28;20329;-85
2023/05/17 13:19:45;;;;;;;9.43;1.47;;;;;;;;;;5016642;28;20208;-85
2023/05/17 13:22:15;;;;;;;1.27;1.17;;;;;;;;;;5015154;28;20230;-85
2023/05/17 13:24:44;;;;;;;4.33;1.33;;;;;;;;;;5015742;28;20206;-85
2023/05/17 13:27:15;;;;;;;2.70;2.20;;;;;;;;;;5015581;28;20226;-85
2023/05/17 13:29:44;;;;;;;2.53;1.50;;;;;;;;;;5015241;28;20265;-85
2023/05/17 13:32:14;;;;;;;2.80;1.57;;;;;;;;;;5015062;28;20231;-85
2023/05/17 13:34:43;;;;;;;3.47;1.50;;;;;;;;;;5015334;28;20226;-85
2023/05/17 13:37:11;;;;;;;2.20;1.47;;;;;;;;;;5014680;28;20215;-85
2023/05/17 13:39:40;;;;;;;3.77;1.53;;;;;;;;;;5015058;28;20199;-84
2023/05/17 13:42:09;;;;;;;1.80;1.63;;;;;;;;;;5015107;28;20293;-84
2023/05/17 13:44:40;;;;;;;2.83;1.80;;;;;;;;;;5014354;28;20238;-85
2023/05/17 13:47:09;;;;;;;8.30;2.27;;;;;;;;;;5015271;28;20233;-85
2023/05/17 13:49:37;;;;;;;1.87;1.63;;;;;;;;;;5015204;28;20302;-85
2023/05/17 13:52:07;;;;;;;1.03;1.03;;;;;;;;;;5014612;28;20226;-86
2023/05/17 13:54:36;;;;;;;3.13;1.80;;;;;;;;;;5015196;28;20264;-85
2023/05/17 13:57:05;;;;;;;5.80;2.57;;;;;;;;;;5015074;28;20207;-85
2023/05/17 13:59:34;;;;;;;2.63;1.60;;;;;;;;;;5014440;28;20234;-85
2023/05/17 14:02:04;;;;;;;1.10;1.03;;;;;;;;;;5014860;28;20261;-84
2023/05/17 14:04:33;;;;;;;2.40;1.87;;;;;;;;;;5015134;28;20261;-85
2023/05/17 14:07:03;;;;;;;1.70;1.47;;;;;;;;;;5014707;28;20195;-85
2023/05/17 14:09:33;;;;;;;3.80;1.37;;;;;;;;;;5015282;28;20208;-86
2023/05/17 14:12:02;;;;;;;4.90;2.53;;;;;;;;;;5015473;28;20226;-85
2023/05/17 14:14:30;;;;;;;6.60;2.40;;;;;;;;;;5014959;28;20213;-86
2023/05/17 14:17:00;;;;;;;4.33;2.67;;;;;;;;;;5013766;28;20226;-86
2023/05/17 14:19:30;;;;;;;3.03;1.37;;;;;;;;;;5014690;28;20221;-85
2023/05/17 14:21:59;;;;;;;7.43;1.87;;;;;;;;;;5014642;28;20230;-86
2023/05/17 14:24:27;;;;;;;2.17;1.27;;;;;;;;;;5013903;28;20226;-87
2023/05/17 14:26:57;;;;;;;5.43;1.50;;;;;;;;;;5014443;28;20306;-86
2023/05/17 14:29:26;;;;;;;5.63;1.20;;;;;;;;;;5014734;28;20234;-86
2023/05/17 14:31:55;;;;;;;1.77;1.63;;;;;;;;;;5014155;28;20224;-86
2023/05/17 14:34:23;;;;;;;1.50;1.30;;;;;;;;;;5014364;28;20207;-87
2023/05/17 14:36:54;;;;;;;3.30;1.73;;;;;;;;;;5014706;28;20265;-87
2023/05/17 14:39:23;;;;;;;3.13;1.50;;;;;;;;;;5013697;28;20211;-86
2023/05/17 14:41:51;;;;;;;4.33;2.07;;;;;;;;;;5014391;28;20203;-87
2023/05/17 14:44:19;;;;;;;3.33;2.00;;;;;;;;;;5013818;28;20191;-86
2023/05/17 14:46:48;;;;;;;1.60;1.50;;;;;;;;;;5015110;28;20237;-87
2023/05/17 14:49:17;;;;;;;2.63;1.50;;;;;;;;;;5013422;28;20218;-87
2023/05/17 14:51:45;;;;;;;4.23;1.97;;;;;;;;;;5013482;28;20292;-87
2023/05/17 14:54:15;;;;;;;3.17;1.50;;;;;;;;;;5013502;28;20278;-86
2023/05/17 14:56:44;;;;;;;1.70;1.60;;;;;;;;;;5013741;28;20234;-87
2023/05/17 14:59:12;;;;;;;3.53;1.80;;;;;;;;;;5013805;28;20211;-87
2023/05/17 15:01:41;;;;;;;2.40;1.63;;;;;;;;;;5013699;28;20199;-87